sensor_id;sensor_type;location;lat;lon;timestamp;P1;durP1;ratioP1;P2;durP2;ratioP2
56073;SDS011;41950;55.840;37.442;2024-03-29T00:01:26;12.38;;;7.97;;
56073;SDS011;41950;55.840;37.442;2024-03-29T00:03:51;12.73;;;7.25;;
56073;SDS011;41950;55.840;37.442;2024-03-29T00:06:20;13.75;;;8.63;;
56073;SDS011;41950;55.840;37.442;2024-03-29T00:08:46;12.57;;;7.75;;
56073;SDS011;41950;55.840;37.442;2024-03-29T00:11:11;13.60;;;8.32;;
56073;SDS011;41950;55.840;37.442;2024-03-29T00:13:37;12.25;;;8.18;;
56073;SDS011;41950;55.840;37.442;2024-03-29T00:16:03;14.05;;;7.80;;
56073;SDS011;41950;55.840;37.442;2024-03-29T00:18:29;13.18;;;7.93;;
56073;SDS011;41950;55.840;37.442;2024-03-29T00:20:54;12.70;;;7.90;;
56073;SDS011;41950;55.840;37.442;2024-03-29T00:23:20;12.27;;;7.85;;
56073;SDS011;41950;55.840;37.442;2024-03-29T00:25:45;11.73;;;7.70;;
56073;SDS011;41950;55.840;37.442;2024-03-29T00:28:11;11.77;;;7.93;;
56073;SDS011;41950;55.840;37.442;2024-03-29T00:30:36;13.55;;;8.30;;
56073;SDS011;41950;55.840;37.442;2024-03-29T00:33:02;14.02;;;8.40;;
56073;SDS011;41950;55.840;37.442;2024-03-29T00:35:28;11.25;;;7.60;;
56073;SDS011;41950;55.840;37.442;2024-03-29T00:37:54;12.98;;;7.78;;
56073;SDS011;41950;55.840;37.442;2024-03-29T00:40:20;13.48;;;7.55;;
56073;SDS011;41950;55.840;37.442;2024-03-29T00:42:45;13.20;;;8.18;;
56073;SDS011;41950;55.840;37.442;2024-03-29T00:45:11;14.02;;;8.40;;
56073;SDS011;41950;55.840;37.442;2024-03-29T00:47:37;11.43;;;7.63;;
56073;SDS011;41950;55.840;37.442;2024-03-29T00:50:03;10.88;;;7.60;;
56073;SDS011;41950;55.840;37.442;2024-03-29T00:52:30;12.55;;;8.18;;
56073;SDS011;41950;55.840;37.442;2024-03-29T00:54:55;11.98;;;7.88;;
56073;SDS011;41950;55.840;37.442;2024-03-29T00:57:21;12.18;;;8.23;;
56073;SDS011;41950;55.840;37.442;2024-03-29T00:59:46;12.70;;;8.02;;
56073;SDS011;41950;55.840;37.442;2024-03-29T01:02:12;12.15;;;7.80;;
56073;SDS011;41950;55.840;37.442;2024-03-29T01:04:38;11.88;;;7.35;;
56073;SDS011;41950;55.840;37.442;2024-03-29T01:07:05;12.95;;;7.60;;
56073;SDS011;41950;55.840;37.442;2024-03-29T01:09:31;14.55;;;8.95;;
56073;SDS011;41950;55.840;37.442;2024-03-29T01:11:57;12.88;;;8.45;;
56073;SDS011;41950;55.840;37.442;2024-03-29T01:14:23;15.65;;;8.45;;
56073;SDS011;41950;55.840;37.442;2024-03-29T01:16:49;11.90;;;7.78;;
56073;SDS011;41950;55.840;37.442;2024-03-29T01:19:14;13.27;;;8.73;;
56073;SDS011;41950;55.840;37.442;2024-03-29T01:21:40;12.18;;;7.75;;
56073;SDS011;41950;55.840;37.442;2024-03-29T01:24:05;12.23;;;8.02;;
56073;SDS011;41950;55.840;37.442;2024-03-29T01:26:31;11.77;;;7.97;;
56073;SDS011;41950;55.840;37.442;2024-03-29T01:28:57;12.00;;;7.90;;
56073;SDS011;41950;55.840;37.442;2024-03-29T01:31:23;12.82;;;8.25;;
56073;SDS011;41950;55.840;37.442;2024-03-29T01:33:51;13.02;;;8.32;;
56073;SDS011;41950;55.840;37.442;2024-03-29T01:36:17;15.10;;;8.77;;
56073;SDS011;41950;55.840;37.442;2024-03-29T01:38:43;14.63;;;8.75;;
56073;SDS011;41950;55.840;37.442;2024-03-29T01:41:11;14.40;;;8.55;;
56073;SDS011;41950;55.840;37.442;2024-03-29T01:43:37;14.13;;;8.77;;
56073;SDS011;41950;55.840;37.442;2024-03-29T01:46:03;13.20;;;8.93;;
56073;SDS011;41950;55.840;37.442;2024-03-29T01:48:33;13.70;;;8.55;;
56073;SDS011;41950;55.840;37.442;2024-03-29T01:50:59;15.48;;;9.10;;
56073;SDS011;41950;55.840;37.442;2024-03-29T01:53:25;14.13;;;9.23;;
56073;SDS011;41950;55.840;37.442;2024-03-29T01:55:52;13.10;;;8.80;;
56073;SDS011;41950;55.840;37.442;2024-03-29T01:58:19;12.43;;;8.65;;
56073;SDS011;41950;55.840;37.442;2024-03-29T02:00:53;13.30;;;8.75;;
56073;SDS011;41950;55.840;37.442;2024-03-29T02:03:20;13.25;;;8.75;;
56073;SDS011;41950;55.840;37.442;2024-03-29T02:05:46;16.25;;;9.23;;
56073;SDS011;41950;55.840;37.442;2024-03-29T02:08:14;14.98;;;8.82;;
56073;SDS011;41950;55.840;37.442;2024-03-29T02:10:40;16.20;;;9.25;;
56073;SDS011;41950;55.840;37.442;2024-03-29T02:13:07;15.15;;;10.02;;
56073;SDS011;41950;55.840;37.442;2024-03-29T02:15:33;12.00;;;9.05;;
56073;SDS011;41950;55.840;37.442;2024-03-29T02:17:59;14.82;;;9.65;;
56073;SDS011;41950;55.840;37.442;2024-03-29T02:20:25;14.25;;;8.93;;
56073;SDS011;41950;55.840;37.442;2024-03-29T02:22:54;14.77;;;9.63;;
56073;SDS011;41950;55.840;37.442;2024-03-29T02:25:25;14.88;;;8.98;;
56073;SDS011;41950;55.840;37.442;2024-03-29T02:27:51;14.98;;;10.05;;
56073;SDS011;41950;55.840;37.442;2024-03-29T02:30:17;13.45;;;9.02;;
56073;SDS011;41950;55.840;37.442;2024-03-29T02:32:43;17.17;;;9.75;;
56073;SDS011;41950;55.840;37.442;2024-03-29T02:35:09;16.15;;;10.30;;
56073;SDS011;41950;55.840;37.442;2024-03-29T02:37:35;15.68;;;10.50;;
56073;SDS011;41950;55.840;37.442;2024-03-29T02:40:02;13.18;;;8.98;;
56073;SDS011;41950;55.840;37.442;2024-03-29T02:42:31;16.73;;;9.57;;
56073;SDS011;41950;55.840;37.442;2024-03-29T02:44:57;13.43;;;9.10;;
56073;SDS011;41950;55.840;37.442;2024-03-29T02:47:24;15.02;;;10.18;;
56073;SDS011;41950;55.840;37.442;2024-03-29T02:49:49;15.52;;;9.80;;
56073;SDS011;41950;55.840;37.442;2024-03-29T02:52:15;16.02;;;9.75;;
56073;SDS011;41950;55.840;37.442;2024-03-29T02:54:41;14.45;;;10.07;;
56073;SDS011;41950;55.840;37.442;2024-03-29T02:57:07;15.23;;;9.70;;
56073;SDS011;41950;55.840;37.442;2024-03-29T02:59:33;15.60;;;9.70;;
56073;SDS011;41950;55.840;37.442;2024-03-29T03:01:58;13.38;;;9.60;;
56073;SDS011;41950;55.840;37.442;2024-03-29T03:04:24;13.27;;;9.23;;
56073;SDS011;41950;55.840;37.442;2024-03-29T03:06:50;16.58;;;10.77;;
56073;SDS011;41950;55.840;37.442;2024-03-29T03:09:15;15.65;;;10.45;;
56073;SDS011;41950;55.840;37.442;2024-03-29T03:12:01;15.30;;;9.60;;
56073;SDS011;41950;55.840;37.442;2024-03-29T03:14:27;14.45;;;9.93;;
56073;SDS011;41950;55.840;37.442;2024-03-29T03:16:52;16.75;;;10.27;;
56073;SDS011;41950;55.840;37.442;2024-03-29T03:19:18;15.90;;;10.77;;
56073;SDS011;41950;55.840;37.442;2024-03-29T03:21:44;16.95;;;10.73;;
56073;SDS011;41950;55.840;37.442;2024-03-29T03:24:10;17.52;;;10.52;;
56073;SDS011;41950;55.840;37.442;2024-03-29T03:26:37;17.17;;;10.35;;
56073;SDS011;41950;55.840;37.442;2024-03-29T03:29:03;15.13;;;10.10;;
56073;SDS011;41950;55.840;37.442;2024-03-29T03:31:29;16.55;;;10.65;;
56073;SDS011;41950;55.840;37.442;2024-03-29T03:33:55;16.30;;;10.45;;
56073;SDS011;41950;55.840;37.442;2024-03-29T03:36:21;15.55;;;10.48;;
56073;SDS011;41950;55.840;37.442;2024-03-29T03:38:46;18.48;;;10.70;;
56073;SDS011;41950;55.840;37.442;2024-03-29T03:41:12;16.90;;;10.30;;
56073;SDS011;41950;55.840;37.442;2024-03-29T03:43:37;17.20;;;10.90;;
56073;SDS011;41950;55.840;37.442;2024-03-29T03:46:03;14.93;;;9.93;;
56073;SDS011;41950;55.840;37.442;2024-03-29T03:48:29;18.40;;;11.10;;
56073;SDS011;41950;55.840;37.442;2024-03-29T03:50:55;15.10;;;10.75;;
56073;SDS011;41950;55.840;37.442;2024-03-29T03:53:21;17.55;;;10.23;;
56073;SDS011;41950;55.840;37.442;2024-03-29T03:55:48;14.00;;;9.45;;
56073;SDS011;41950;55.840;37.442;2024-03-29T03:58:13;14.73;;;10.25;;
56073;SDS011;41950;55.840;37.442;2024-03-29T04:00:39;18.23;;;10.68;;
56073;SDS011;41950;55.840;37.442;2024-03-29T04:03:05;14.45;;;10.40;;
56073;SDS011;41950;55.840;37.442;2024-03-29T04:05:31;14.65;;;10.18;;
56073;SDS011;41950;55.840;37.442;2024-03-29T04:07:57;17.70;;;10.77;;
56073;SDS011;41950;55.840;37.442;2024-03-29T04:10:23;14.95;;;10.55;;
56073;SDS011;41950;55.840;37.442;2024-03-29T04:12:52;18.38;;;10.63;;
56073;SDS011;41950;55.840;37.442;2024-03-29T04:15:18;13.70;;;10.40;;
56073;SDS011;41950;55.840;37.442;2024-03-29T04:17:43;14.73;;;9.80;;
56073;SDS011;41950;55.840;37.442;2024-03-29T04:20:09;16.98;;;10.10;;
56073;SDS011;41950;55.840;37.442;2024-03-29T04:22:35;16.70;;;10.35;;
56073;SDS011;41950;55.840;37.442;2024-03-29T04:25:01;14.77;;;9.82;;
56073;SDS011;41950;55.840;37.442;2024-03-29T04:27:27;17.75;;;9.88;;
56073;SDS011;41950;55.840;37.442;2024-03-29T04:29:53;16.73;;;10.10;;
56073;SDS011;41950;55.840;37.442;2024-03-29T04:32:20;15.65;;;9.02;;
56073;SDS011;41950;55.840;37.442;2024-03-29T04:34:46;15.45;;;9.55;;
56073;SDS011;41950;55.840;37.442;2024-03-29T04:37:15;16.38;;;10.00;;
56073;SDS011;41950;55.840;37.442;2024-03-29T04:39:44;15.05;;;9.88;;
56073;SDS011;41950;55.840;37.442;2024-03-29T04:42:11;14.32;;;9.77;;
56073;SDS011;41950;55.840;37.442;2024-03-29T04:44:37;15.00;;;9.88;;
56073;SDS011;41950;55.840;37.442;2024-03-29T04:47:03;12.95;;;8.52;;
56073;SDS011;41950;55.840;37.442;2024-03-29T04:49:29;16.63;;;9.48;;
56073;SDS011;41950;55.840;37.442;2024-03-29T04:52:03;15.27;;;9.27;;
56073;SDS011;41950;55.840;37.442;2024-03-29T04:54:29;16.67;;;9.40;;
56073;SDS011;41950;55.840;37.442;2024-03-29T04:56:55;15.65;;;9.68;;
56073;SDS011;41950;55.840;37.442;2024-03-29T04:59:21;14.60;;;7.82;;
56073;SDS011;41950;55.840;37.442;2024-03-29T05:01:48;15.32;;;9.27;;
56073;SDS011;41950;55.840;37.442;2024-03-29T05:04:19;13.25;;;9.05;;
56073;SDS011;41950;55.840;37.442;2024-03-29T05:06:54;12.95;;;8.57;;
56073;SDS011;41950;55.840;37.442;2024-03-29T05:09:21;11.63;;;8.98;;
56073;SDS011;41950;55.840;37.442;2024-03-29T05:11:47;12.63;;;8.30;;
56073;SDS011;41950;55.840;37.442;2024-03-29T05:14:16;15.23;;;7.95;;
56073;SDS011;41950;55.840;37.442;2024-03-29T05:16:44;12.70;;;8.48;;
56073;SDS011;41950;55.840;37.442;2024-03-29T05:19:11;16.45;;;8.68;;
56073;SDS011;41950;55.840;37.442;2024-03-29T05:21:40;14.68;;;7.75;;
56073;SDS011;41950;55.840;37.442;2024-03-29T05:24:09;12.95;;;8.40;;
56073;SDS011;41950;55.840;37.442;2024-03-29T05:26:35;12.35;;;8.23;;
56073;SDS011;41950;55.840;37.442;2024-03-29T05:29:01;15.75;;;8.20;;
56073;SDS011;41950;55.840;37.442;2024-03-29T05:31:28;15.63;;;8.43;;
56073;SDS011;41950;55.840;37.442;2024-03-29T05:33:54;12.27;;;7.80;;
56073;SDS011;41950;55.840;37.442;2024-03-29T05:36:19;13.18;;;7.38;;
56073;SDS011;41950;55.840;37.442;2024-03-29T05:38:46;13.07;;;7.75;;
56073;SDS011;41950;55.840;37.442;2024-03-29T05:41:11;16.23;;;8.00;;
56073;SDS011;41950;55.840;37.442;2024-03-29T05:43:40;11.55;;;6.72;;
56073;SDS011;41950;55.840;37.442;2024-03-29T05:46:05;12.10;;;6.93;;
56073;SDS011;41950;55.840;37.442;2024-03-29T05:48:31;14.70;;;7.82;;
56073;SDS011;41950;55.840;37.442;2024-03-29T05:50:57;12.45;;;7.78;;
56073;SDS011;41950;55.840;37.442;2024-03-29T05:53:22;15.52;;;7.25;;
56073;SDS011;41950;55.840;37.442;2024-03-29T05:55:49;10.35;;;7.43;;
56073;SDS011;41950;55.840;37.442;2024-03-29T05:58:15;11.68;;;7.50;;
56073;SDS011;41950;55.840;37.442;2024-03-29T06:00:43;14.00;;;7.18;;
56073;SDS011;41950;55.840;37.442;2024-03-29T06:03:09;12.30;;;7.72;;
56073;SDS011;41950;55.840;37.442;2024-03-29T06:05:34;12.85;;;7.50;;
56073;SDS011;41950;55.840;37.442;2024-03-29T06:08:00;10.75;;;6.43;;
56073;SDS011;41950;55.840;37.442;2024-03-29T06:10:26;11.43;;;7.57;;
56073;SDS011;41950;55.840;37.442;2024-03-29T06:12:51;12.48;;;6.70;;
56073;SDS011;41950;55.840;37.442;2024-03-29T06:15:17;15.07;;;7.72;;
56073;SDS011;41950;55.840;37.442;2024-03-29T06:18:01;11.55;;;7.45;;
56073;SDS011;41950;55.840;37.442;2024-03-29T14:10:35;13.52;;;10.40;;
56073;SDS011;41950;55.840;37.442;2024-03-29T14:13:01;17.00;;;10.85;;
56073;SDS011;41950;55.840;37.442;2024-03-29T14:15:27;14.43;;;10.55;;
56073;SDS011;41950;55.840;37.442;2024-03-29T14:17:52;15.48;;;10.50;;
56073;SDS011;41950;55.840;37.442;2024-03-29T14:20:18;14.02;;;10.23;;
56073;SDS011;41950;55.840;37.442;2024-03-29T14:22:44;14.07;;;10.85;;
56073;SDS011;41950;55.840;37.442;2024-03-29T14:25:10;16.80;;;10.70;;
56073;SDS011;41950;55.840;37.442;2024-03-29T14:27:36;13.68;;;10.38;;
56073;SDS011;41950;55.840;37.442;2024-03-29T14:30:11;13.52;;;9.23;;
56073;SDS011;41950;55.840;37.442;2024-03-29T14:32:37;15.45;;;10.75;;
56073;SDS011;41950;55.840;37.442;2024-03-29T14:35:03;12.88;;;10.25;;
56073;SDS011;41950;55.840;37.442;2024-03-29T14:37:29;14.88;;;10.00;;
56073;SDS011;41950;55.840;37.442;2024-03-29T14:39:55;12.80;;;9.93;;
56073;SDS011;41950;55.840;37.442;2024-03-29T14:42:21;13.40;;;10.63;;
56073;SDS011;41950;55.840;37.442;2024-03-29T14:44:48;15.00;;;10.32;;
56073;SDS011;41950;55.840;37.442;2024-03-29T14:47:14;15.32;;;10.20;;
56073;SDS011;41950;55.840;37.442;2024-03-29T14:49:42;16.23;;;10.35;;
56073;SDS011;41950;55.840;37.442;2024-03-29T14:52:08;14.02;;;9.93;;
56073;SDS011;41950;55.840;37.442;2024-03-29T14:54:33;16.10;;;10.00;;
56073;SDS011;41950;55.840;37.442;2024-03-29T14:56:59;14.43;;;10.30;;
56073;SDS011;41950;55.840;37.442;2024-03-29T14:59:24;15.25;;;10.30;;
56073;SDS011;41950;55.840;37.442;2024-03-29T15:01:51;18.08;;;11.30;;
56073;SDS011;41950;55.840;37.442;2024-03-29T15:04:18;19.10;;;10.95;;
56073;SDS011;41950;55.840;37.442;2024-03-29T15:06:43;17.27;;;11.05;;
56073;SDS011;41950;55.840;37.442;2024-03-29T15:09:11;17.13;;;10.85;;
56073;SDS011;41950;55.840;37.442;2024-03-29T15:11:37;21.02;;;11.35;;
56073;SDS011;41950;55.840;37.442;2024-03-29T15:14:03;15.10;;;10.77;;
56073;SDS011;41950;55.840;37.442;2024-03-29T15:16:29;16.33;;;11.35;;
56073;SDS011;41950;55.840;37.442;2024-03-29T15:18:54;18.35;;;11.07;;
56073;SDS011;41950;55.840;37.442;2024-03-29T15:21:23;16.15;;;10.77;;
56073;SDS011;41950;55.840;37.442;2024-03-29T15:23:49;18.38;;;11.20;;
56073;SDS011;41950;55.840;37.442;2024-03-29T15:26:14;16.15;;;11.60;;
56073;SDS011;41950;55.840;37.442;2024-03-29T15:28:41;17.85;;;10.52;;
56073;SDS011;41950;55.840;37.442;2024-03-29T15:31:25;17.92;;;11.82;;
56073;SDS011;41950;55.840;37.442;2024-03-29T15:33:52;16.83;;;10.60;;
56073;SDS011;41950;55.840;37.442;2024-03-29T15:36:18;17.05;;;10.55;;
56073;SDS011;41950;55.840;37.442;2024-03-29T15:38:47;16.92;;;11.65;;
56073;SDS011;41950;55.840;37.442;2024-03-29T15:41:16;18.63;;;11.55;;
56073;SDS011;41950;55.840;37.442;2024-03-29T15:43:42;21.63;;;11.63;;
56073;SDS011;41950;55.840;37.442;2024-03-29T15:46:08;17.40;;;11.52;;
56073;SDS011;41950;55.840;37.442;2024-03-29T15:48:34;17.02;;;10.43;;
56073;SDS011;41950;55.840;37.442;2024-03-29T15:51:00;20.02;;;11.98;;
56073;SDS011;41950;55.840;37.442;2024-03-29T15:53:26;19.48;;;12.20;;
56073;SDS011;41950;55.840;37.442;2024-03-29T15:55:53;18.80;;;11.70;;
56073;SDS011;41950;55.840;37.442;2024-03-29T15:58:19;19.95;;;11.23;;
56073;SDS011;41950;55.840;37.442;2024-03-29T16:00:45;17.63;;;10.75;;
56073;SDS011;41950;55.840;37.442;2024-03-29T16:03:11;16.65;;;10.75;;
56073;SDS011;41950;55.840;37.442;2024-03-29T16:05:43;18.17;;;11.82;;
56073;SDS011;41950;55.840;37.442;2024-03-29T16:08:10;17.42;;;11.13;;
56073;SDS011;41950;55.840;37.442;2024-03-29T16:10:53;16.88;;;11.63;;
56073;SDS011;41950;55.840;37.442;2024-03-29T16:13:24;16.10;;;11.48;;
56073;SDS011;41950;55.840;37.442;2024-03-29T16:15:51;19.48;;;12.02;;
56073;SDS011;41950;55.840;37.442;2024-03-29T16:18:18;17.92;;;11.18;;
56073;SDS011;41950;55.840;37.442;2024-03-29T16:20:44;16.52;;;11.02;;
56073;SDS011;41950;55.840;37.442;2024-03-29T16:23:11;17.92;;;11.65;;
56073;SDS011;41950;55.840;37.442;2024-03-29T16:25:42;14.90;;;11.30;;
56073;SDS011;41950;55.840;37.442;2024-03-29T16:28:11;17.85;;;12.30;;
56073;SDS011;41950;55.840;37.442;2024-03-29T16:30:37;17.05;;;11.40;;
56073;SDS011;41950;55.840;37.442;2024-03-29T16:33:04;18.05;;;11.55;;
56073;SDS011;41950;55.840;37.442;2024-03-29T16:35:30;21.15;;;12.02;;
56073;SDS011;41950;55.840;37.442;2024-03-29T16:37:56;18.75;;;11.10;;
56073;SDS011;41950;55.840;37.442;2024-03-29T16:40:22;19.17;;;12.80;;
56073;SDS011;41950;55.840;37.442;2024-03-29T16:42:48;18.65;;;12.73;;
56073;SDS011;41950;55.840;37.442;2024-03-29T16:45:13;21.00;;;13.25;;
56073;SDS011;41950;55.840;37.442;2024-03-29T16:47:39;16.77;;;12.52;;
56073;SDS011;41950;55.840;37.442;2024-03-29T16:50:07;19.23;;;13.30;;
56073;SDS011;41950;55.840;37.442;2024-03-29T16:52:34;19.48;;;13.52;;
56073;SDS011;41950;55.840;37.442;2024-03-29T16:55:00;19.45;;;12.75;;
56073;SDS011;41950;55.840;37.442;2024-03-29T16:57:26;22.98;;;12.27;;
56073;SDS011;41950;55.840;37.442;2024-03-29T16:59:51;18.50;;;12.40;;
56073;SDS011;41950;55.840;37.442;2024-03-29T17:02:17;19.65;;;12.60;;
56073;SDS011;41950;55.840;37.442;2024-03-29T17:04:43;18.50;;;12.23;;
56073;SDS011;41950;55.840;37.442;2024-03-29T17:07:13;17.63;;;12.73;;
56073;SDS011;41950;55.840;37.442;2024-03-29T17:09:42;20.83;;;12.10;;
56073;SDS011;41950;55.840;37.442;2024-03-29T17:12:12;18.08;;;12.15;;
56073;SDS011;41950;55.840;37.442;2024-03-29T17:14:38;16.50;;;11.68;;
56073;SDS011;41950;55.840;37.442;2024-03-29T17:17:04;18.38;;;11.55;;
56073;SDS011;41950;55.840;37.442;2024-03-29T17:19:33;19.77;;;11.57;;
56073;SDS011;41950;55.840;37.442;2024-03-29T17:22:00;17.27;;;12.40;;
56073;SDS011;41950;55.840;37.442;2024-03-29T17:24:26;16.75;;;11.98;;
56073;SDS011;41950;55.840;37.442;2024-03-29T17:26:54;17.85;;;11.60;;
56073;SDS011;41950;55.840;37.442;2024-03-29T17:29:21;19.90;;;12.32;;
56073;SDS011;41950;55.840;37.442;2024-03-29T17:31:48;20.05;;;12.25;;
56073;SDS011;41950;55.840;37.442;2024-03-29T17:34:15;20.67;;;12.38;;
56073;SDS011;41950;55.840;37.442;2024-03-29T17:36:42;20.05;;;13.52;;
56073;SDS011;41950;55.840;37.442;2024-03-29T17:39:08;23.55;;;16.45;;
56073;SDS011;41950;55.840;37.442;2024-03-29T17:41:43;19.98;;;12.82;;
56073;SDS011;41950;55.840;37.442;2024-03-29T17:44:10;18.45;;;12.85;;
56073;SDS011;41950;55.840;37.442;2024-03-29T17:46:44;16.25;;;12.70;;
56073;SDS011;41950;55.840;37.442;2024-03-29T17:49:19;18.60;;;12.95;;
56073;SDS011;41950;55.840;37.442;2024-03-29T17:51:45;19.25;;;11.82;;
56073;SDS011;41950;55.840;37.442;2024-03-29T17:54:10;15.65;;;12.32;;
56073;SDS011;41950;55.840;37.442;2024-03-29T17:56:39;18.13;;;11.95;;
56073;SDS011;41950;55.840;37.442;2024-03-29T17:59:07;20.17;;;13.23;;
56073;SDS011;41950;55.840;37.442;2024-03-29T18:01:33;16.40;;;12.02;;
56073;SDS011;41950;55.840;37.442;2024-03-29T18:03:59;17.08;;;11.40;;
56073;SDS011;41950;55.840;37.442;2024-03-29T18:06:24;15.85;;;11.38;;
56073;SDS011;41950;55.840;37.442;2024-03-29T18:08:50;15.75;;;11.50;;
56073;SDS011;41950;55.840;37.442;2024-03-29T18:11:15;16.08;;;12.70;;
56073;SDS011;41950;55.840;37.442;2024-03-29T18:13:42;16.65;;;11.90;;
56073;SDS011;41950;55.840;37.442;2024-03-29T18:16:08;15.55;;;11.75;;
56073;SDS011;41950;55.840;37.442;2024-03-29T18:18:36;14.63;;;10.32;;
56073;SDS011;41950;55.840;37.442;2024-03-29T18:21:02;17.17;;;12.35;;
56073;SDS011;41950;55.840;37.442;2024-03-29T18:23:28;15.88;;;11.93;;
56073;SDS011;41950;55.840;37.442;2024-03-29T18:25:54;16.98;;;12.15;;
56073;SDS011;41950;55.840;37.442;2024-03-29T18:28:19;17.08;;;11.98;;
56073;SDS011;41950;55.840;37.442;2024-03-29T18:30:48;18.02;;;13.55;;
56073;SDS011;41950;55.840;37.442;2024-03-29T18:33:14;18.08;;;12.52;;
56073;SDS011;41950;55.840;37.442;2024-03-29T18:35:40;15.57;;;12.30;;
56073;SDS011;41950;55.840;37.442;2024-03-29T18:38:05;17.42;;;12.93;;
56073;SDS011;41950;55.840;37.442;2024-03-29T18:40:31;17.30;;;12.20;;
56073;SDS011;41950;55.840;37.442;2024-03-29T18:42:57;16.13;;;12.05;;
56073;SDS011;41950;55.840;37.442;2024-03-29T18:45:23;14.88;;;11.63;;
56073;SDS011;41950;55.840;37.442;2024-03-29T18:47:50;18.20;;;12.27;;
56073;SDS011;41950;55.840;37.442;2024-03-29T18:50:17;16.20;;;11.70;;
56073;SDS011;41950;55.840;37.442;2024-03-29T18:52:43;19.15;;;12.52;;
56073;SDS011;41950;55.840;37.442;2024-03-29T18:55:09;16.42;;;10.95;;
56073;SDS011;41950;55.840;37.442;2024-03-29T18:57:36;17.25;;;11.55;;
56073;SDS011;41950;55.840;37.442;2024-03-29T19:00:05;14.90;;;11.13;;
56073;SDS011;41950;55.840;37.442;2024-03-29T19:02:33;16.35;;;10.63;;
56073;SDS011;41950;55.840;37.442;2024-03-29T19:04:59;14.00;;;10.13;;
56073;SDS011;41950;55.840;37.442;2024-03-29T19:07:25;14.85;;;10.73;;
56073;SDS011;41950;55.840;37.442;2024-03-29T19:09:51;17.35;;;10.13;;
56073;SDS011;41950;55.840;37.442;2024-03-29T19:12:16;14.82;;;11.18;;
56073;SDS011;41950;55.840;37.442;2024-03-29T19:14:49;14.18;;;10.77;;
56073;SDS011;41950;55.840;37.442;2024-03-29T19:17:15;14.18;;;10.18;;
56073;SDS011;41950;55.840;37.442;2024-03-29T19:19:42;14.25;;;10.23;;
56073;SDS011;41950;55.840;37.442;2024-03-29T19:22:08;14.07;;;9.38;;
56073;SDS011;41950;55.840;37.442;2024-03-29T19:24:34;12.05;;;8.82;;
56073;SDS011;41950;55.840;37.442;2024-03-29T19:27:01;14.40;;;9.30;;
56073;SDS011;41950;55.840;37.442;2024-03-29T19:29:27;12.57;;;9.00;;
56073;SDS011;41950;55.840;37.442;2024-03-29T19:31:52;12.30;;;8.32;;
56073;SDS011;41950;55.840;37.442;2024-03-29T19:34:19;13.88;;;8.90;;
56073;SDS011;41950;55.840;37.442;2024-03-29T19:36:44;12.10;;;8.73;;
56073;SDS011;41950;55.840;37.442;2024-03-29T19:39:12;12.68;;;8.18;;
56073;SDS011;41950;55.840;37.442;2024-03-29T19:41:37;15.65;;;7.75;;
56073;SDS011;41950;55.840;37.442;2024-03-29T19:44:03;11.20;;;8.75;;
56073;SDS011;41950;55.840;37.442;2024-03-29T19:46:29;10.10;;;6.72;;
56073;SDS011;41950;55.840;37.442;2024-03-29T19:48:56;10.30;;;7.22;;
56073;SDS011;41950;55.840;37.442;2024-03-29T19:51:21;11.38;;;7.00;;
56073;SDS011;41950;55.840;37.442;2024-03-29T19:53:47;11.18;;;7.30;;
56073;SDS011;41950;55.840;37.442;2024-03-29T19:56:14;11.20;;;7.50;;
56073;SDS011;41950;55.840;37.442;2024-03-29T19:58:41;11.15;;;7.78;;
56073;SDS011;41950;55.840;37.442;2024-03-29T20:01:07;10.90;;;7.35;;
56073;SDS011;41950;55.840;37.442;2024-03-29T20:03:33;11.88;;;7.03;;
56073;SDS011;41950;55.840;37.442;2024-03-29T20:05:58;11.95;;;7.63;;
56073;SDS011;41950;55.840;37.442;2024-03-29T20:08:24;10.95;;;6.03;;
56073;SDS011;41950;55.840;37.442;2024-03-29T20:10:50;10.38;;;7.00;;
56073;SDS011;41950;55.840;37.442;2024-03-29T20:13:16;10.65;;;6.47;;
56073;SDS011;41950;55.840;37.442;2024-03-29T20:15:46;11.55;;;5.82;;
56073;SDS011;41950;55.840;37.442;2024-03-29T20:18:13;7.72;;;5.15;;
56073;SDS011;41950;55.840;37.442;2024-03-29T20:20:47;8.20;;;5.50;;
56073;SDS011;41950;55.840;37.442;2024-03-29T20:23:16;8.70;;;4.93;;
56073;SDS011;41950;55.840;37.442;2024-03-29T20:25:42;6.97;;;5.25;;
56073;SDS011;41950;55.840;37.442;2024-03-29T20:28:09;8.20;;;5.13;;
56073;SDS011;41950;55.840;37.442;2024-03-29T20:30:37;10.57;;;5.70;;
56073;SDS011;41950;55.840;37.442;2024-03-29T20:33:03;7.38;;;5.32;;
56073;SDS011;41950;55.840;37.442;2024-03-29T20:35:29;5.45;;;3.83;;
56073;SDS011;41950;55.840;37.442;2024-03-29T20:37:55;6.57;;;3.83;;
56073;SDS011;41950;55.840;37.442;2024-03-29T20:40:22;5.38;;;3.78;;
56073;SDS011;41950;55.840;37.442;2024-03-29T20:42:48;6.65;;;4.57;;
56073;SDS011;41950;55.840;37.442;2024-03-29T20:45:14;6.80;;;4.07;;
56073;SDS011;41950;55.840;37.442;2024-03-29T20:47:39;7.90;;;4.55;;
56073;SDS011;41950;55.840;37.442;2024-03-29T20:50:07;5.72;;;3.90;;
56073;SDS011;41950;55.840;37.442;2024-03-29T20:52:34;6.40;;;3.85;;
56073;SDS011;41950;55.840;37.442;2024-03-29T20:55:01;6.85;;;4.32;;
56073;SDS011;41950;55.840;37.442;2024-03-29T20:57:33;4.97;;;3.65;;
56073;SDS011;41950;55.840;37.442;2024-03-29T21:00:00;5.97;;;4.07;;
56073;SDS011;41950;55.840;37.442;2024-03-29T21:02:27;5.60;;;3.78;;
56073;SDS011;41950;55.840;37.442;2024-03-29T21:05:11;6.00;;;3.90;;
56073;SDS011;41950;55.840;37.442;2024-03-29T21:07:56;5.15;;;3.33;;
56073;SDS011;41950;55.840;37.442;2024-03-29T21:10:22;4.82;;;2.70;;
56073;SDS011;41950;55.840;37.442;2024-03-29T21:12:48;6.18;;;3.85;;
56073;SDS011;41950;55.840;37.442;2024-03-29T21:15:14;5.40;;;3.13;;
56073;SDS011;41950;55.840;37.442;2024-03-29T21:17:45;4.07;;;2.00;;
56073;SDS011;41950;55.840;37.442;2024-03-29T21:20:11;4.95;;;2.80;;
56073;SDS011;41950;55.840;37.442;2024-03-29T21:22:38;5.15;;;2.55;;
56073;SDS011;41950;55.840;37.442;2024-03-29T21:25:04;10.75;;;3.72;;
56073;SDS011;41950;55.840;37.442;2024-03-29T21:27:34;6.28;;;2.90;;
56073;SDS011;41950;55.840;37.442;2024-03-29T21:30:01;3.78;;;2.30;;
56073;SDS011;41950;55.840;37.442;2024-03-29T21:32:31;4.22;;;2.05;;
56073;SDS011;41950;55.840;37.442;2024-03-29T21:34:56;3.85;;;2.40;;
56073;SDS011;41950;55.840;37.442;2024-03-29T21:37:22;5.85;;;2.55;;
56073;SDS011;41950;55.840;37.442;2024-03-29T21:39:47;4.18;;;2.05;;
56073;SDS011;41950;55.840;37.442;2024-03-29T21:42:16;3.85;;;2.17;;
56073;SDS011;41950;55.840;37.442;2024-03-29T21:44:47;3.70;;;2.25;;
56073;SDS011;41950;55.840;37.442;2024-03-29T21:47:17;4.03;;;2.00;;
56073;SDS011;41950;55.840;37.442;2024-03-29T21:49:43;3.45;;;1.98;;
56073;SDS011;41950;55.840;37.442;2024-03-29T21:52:10;4.03;;;2.30;;
56073;SDS011;41950;55.840;37.442;2024-03-29T21:54:42;3.65;;;1.65;;
56073;SDS011;41950;55.840;37.442;2024-03-29T21:57:09;3.20;;;1.55;;
56073;SDS011;41950;55.840;37.442;2024-03-29T21:59:35;3.97;;;1.95;;
56073;SDS011;41950;55.840;37.442;2024-03-29T22:02:02;3.10;;;1.90;;
56073;SDS011;41950;55.840;37.442;2024-03-29T22:04:28;3.15;;;1.50;;
56073;SDS011;41950;55.840;37.442;2024-03-29T22:06:54;3.47;;;1.70;;